createdAt,value
2023-03-16T00:00:19.569Z,11.20
2023-03-16T00:02:46.695Z,12.10
2023-03-16T00:05:14.350Z,7.50
2023-03-16T00:07:44.381Z,8.50
2023-03-16T00:10:13.053Z,9.90
2023-03-16T00:12:43.355Z,13.23
2023-03-16T00:15:12.313Z,14.10
2023-03-16T00:17:39.409Z,13.75
2023-03-16T00:20:07.154Z,11.23
2023-03-16T00:22:34.688Z,12.45
2023-03-16T00:25:02.020Z,15.00
2023-03-16T00:27:29.150Z,12.13
2023-03-16T00:29:56.717Z,12.93
2023-03-16T00:32:27.603Z,14.05
2023-03-16T00:34:55.120Z,11.80
2023-03-16T00:37:23.958Z,14.23
2023-03-16T00:39:52.759Z,16.98
2023-03-16T00:42:20.691Z,11.75
2023-03-16T00:44:47.781Z,10.95
2023-03-16T00:47:15.281Z,10.88
2023-03-16T00:49:44.476Z,6.20
2023-03-16T00:52:16.224Z,13.20
2023-03-16T00:54:45.511Z,9.55
2023-03-16T00:57:17.442Z,6.80
2023-03-16T00:59:46.255Z,11.02
2023-03-16T01:02:15.474Z,7.82
2023-03-16T01:04:43.770Z,8.75
2023-03-16T01:07:14.150Z,10.55
2023-03-16T01:09:42.710Z,9.25
2023-03-16T01:12:17.376Z,8.13
2023-03-16T01:14:45.876Z,7.45
2023-03-16T01:17:15.066Z,14.50
2023-03-16T01:19:43.693Z,6.88
2023-03-16T01:22:12.182Z,8.27
2023-03-16T01:24:41.029Z,9.32
2023-03-16T01:27:09.151Z,7.90
2023-03-16T01:29:37.655Z,9.00
2023-03-16T01:32:05.738Z,11.35
2023-03-16T01:34:33.872Z,7.75
2023-03-16T01:37:01.231Z,6.43
2023-03-16T01:39:39.950Z,15.77
2023-03-16T01:42:07.562Z,11.65
2023-03-16T01:44:57.110Z,9.10
2023-03-16T01:47:29.103Z,8.77
2023-03-16T01:49:57.561Z,6.47
2023-03-16T01:52:35.741Z,11.23
2023-03-16T01:55:13.205Z,8.65
2023-03-16T01:57:44.397Z,8.10
2023-03-16T02:00:20.527Z,11.00
2023-03-16T02:03:19.065Z,5.10
2023-03-16T02:05:58.509Z,7.70
2023-03-16T02:08:27.768Z,9.20
2023-03-16T02:10:56.686Z,6.88
2023-03-16T02:13:33.911Z,9.20
2023-03-16T02:16:01.773Z,13.77
2023-03-16T02:18:29.086Z,12.73
2023-03-16T02:21:22.576Z,8.57
2023-03-16T02:23:51.524Z,10.95
2023-03-16T02:26:28.968Z,5.78
2023-03-16T02:29:29.563Z,8.52
2023-03-16T02:32:00.120Z,10.18
2023-03-16T02:34:28.053Z,7.82
2023-03-16T02:36:57.071Z,5.80
2023-03-16T02:39:25.811Z,9.35
2023-03-16T02:41:52.996Z,15.05
2023-03-16T02:44:27.429Z,8.15
2023-03-16T02:47:01.730Z,9.48
2023-03-16T02:49:40.772Z,7.78
2023-03-16T02:52:08.751Z,9.25
2023-03-16T02:54:36.016Z,9.00
2023-03-16T02:57:03.771Z,10.90
2023-03-16T02:59:31.661Z,10.13
2023-03-16T03:01:58.798Z,8.63
2023-03-16T03:04:25.711Z,9.00
2023-03-16T03:06:52.651Z,8.60
2023-03-16T03:09:20.788Z,6.10
2023-03-16T03:11:52.175Z,6.15
2023-03-16T03:14:19.211Z,6.93
2023-03-16T03:16:48.941Z,6.55
2023-03-16T03:19:16.119Z,4.63
2023-03-16T03:21:43.076Z,11.27
2023-03-16T03:24:10.552Z,12.00
2023-03-16T03:26:40.434Z,8.57
2023-03-16T03:29:13.044Z,7.07
2023-03-16T03:31:40.378Z,6.10
2023-03-16T03:34:07.655Z,12.73
2023-03-16T03:36:35.824Z,6.65
2023-03-16T03:39:05.154Z,12.00
2023-03-16T03:41:34.203Z,7.38
2023-03-16T03:44:05.237Z,8.95
2023-03-16T03:46:34.366Z,6.18
2023-03-16T03:49:03.899Z,7.35
2023-03-16T03:51:34.906Z,6.28
2023-03-16T03:54:12.413Z,11.05
2023-03-16T03:56:57.822Z,10.18
2023-03-16T03:59:25.125Z,6.93
2023-03-16T04:02:16.115Z,13.57
2023-03-16T04:04:49.514Z,6.05
2023-03-16T04:07:16.760Z,6.40
2023-03-16T04:09:45.074Z,9.18
2023-03-16T04:12:22.408Z,7.72
2023-03-16T04:14:49.579Z,11.73
2023-03-16T04:17:17.703Z,9.27
2023-03-16T04:19:45.702Z,9.57
2023-03-16T04:22:15.688Z,10.82
2023-03-16T04:24:44.508Z,11.80
2023-03-16T04:27:13.090Z,6.50
2023-03-16T04:29:40.527Z,13.10
2023-03-16T04:32:08.075Z,10.48
2023-03-16T04:34:35.925Z,6.57
2023-03-16T04:37:05.471Z,9.15
2023-03-16T04:39:35.042Z,10.35
2023-03-16T04:42:02.005Z,11.32
2023-03-16T04:44:29.127Z,7.60
2023-03-16T04:46:56.748Z,8.43
2023-03-16T04:49:26.668Z,13.35
2023-03-16T04:51:53.707Z,4.38
2023-03-16T04:54:22.083Z,9.43
2023-03-16T04:56:49.192Z,10.45
2023-03-16T04:59:30.307Z,10.00
2023-03-16T05:02:04.004Z,11.10
2023-03-16T05:04:31.832Z,11.63
2023-03-16T05:06:58.943Z,9.52
2023-03-16T05:09:30.274Z,12.13
2023-03-16T05:11:57.399Z,7.18
2023-03-16T05:14:24.360Z,15.25
2023-03-16T05:17:14.819Z,7.45
2023-03-16T05:19:43.305Z,6.45
2023-03-16T05:22:11.054Z,11.90
2023-03-16T05:24:41.255Z,6.10
2023-03-16T05:27:08.390Z,8.95
2023-03-16T05:29:35.582Z,10.38
2023-03-16T05:32:02.583Z,6.35
2023-03-16T05:34:31.642Z,19.13
2023-03-16T05:36:58.972Z,7.75
2023-03-16T05:39:25.930Z,8.65
2023-03-16T05:41:54.994Z,7.97
2023-03-16T05:44:22.619Z,7.40
2023-03-16T05:47:19.975Z,9.05
2023-03-16T05:49:52.431Z,9.20
2023-03-16T05:52:25.411Z,8.52
2023-03-16T05:54:54.097Z,7.60
2023-03-16T05:57:21.188Z,7.32
2023-03-16T05:59:53.306Z,9.75
2023-03-16T06:02:21.711Z,15.38
2023-03-16T06:04:48.906Z,7.28
2023-03-16T06:07:15.918Z,10.60
2023-03-16T06:09:43.291Z,11.80
2023-03-16T06:12:14.507Z,8.70
2023-03-16T06:14:42.353Z,14.23
2023-03-16T06:17:10.264Z,18.25
2023-03-16T06:19:39.443Z,8.35
2023-03-16T06:22:08.530Z,8.45
2023-03-16T06:24:35.822Z,9.65
2023-03-16T06:27:03.015Z,10.48
2023-03-16T06:29:36.182Z,10.07
2023-03-16T06:32:04.087Z,10.82
2023-03-16T06:34:31.260Z,9.15
2023-03-16T06:36:58.362Z,13.20
2023-03-16T06:39:25.791Z,9.45
2023-03-16T06:41:53.413Z,10.57
2023-03-16T06:44:21.354Z,7.65
2023-03-16T06:47:01.603Z,8.98
2023-03-16T06:49:28.793Z,9.75
2023-03-16T06:51:58.596Z,9.93
2023-03-16T06:54:26.881Z,7.82
2023-03-16T06:56:54.033Z,7.22
2023-03-16T06:59:22.129Z,9.95
2023-03-16T07:01:50.334Z,15.00
2023-03-16T07:04:17.779Z,22.25
2023-03-16T07:06:45.048Z,8.27
2023-03-16T07:09:12.942Z,11.18
2023-03-16T07:11:40.746Z,9.38
2023-03-16T07:14:07.804Z,10.20
2023-03-16T07:16:35.525Z,7.60
2023-03-16T07:19:04.569Z,9.68
2023-03-16T07:21:39.041Z,6.00
2023-03-16T07:24:10.626Z,6.53
2023-03-16T07:26:38.832Z,17.92
2023-03-16T07:29:06.455Z,9.27
2023-03-16T07:31:34.805Z,8.20
2023-03-16T07:34:06.557Z,8.90
2023-03-16T07:36:41.796Z,18.70
2023-03-16T07:39:09.109Z,6.38
2023-03-16T07:41:36.441Z,10.98
2023-03-16T07:44:31.194Z,7.72
2023-03-16T07:46:58.395Z,9.45
2023-03-16T07:49:28.253Z,8.90
2023-03-16T07:51:56.740Z,8.85
2023-03-16T07:54:30.147Z,7.72
2023-03-16T07:56:57.213Z,8.15
2023-03-16T07:59:33.973Z,7.93
2023-03-16T08:02:02.140Z,7.38
2023-03-16T08:04:29.293Z,5.60
2023-03-16T08:07:00.277Z,7.25
2023-03-16T08:09:35.920Z,6.68
2023-03-16T08:12:07.123Z,5.63
2023-03-16T08:14:36.720Z,9.63
2023-03-16T08:17:12.298Z,7.10
2023-03-16T08:19:40.413Z,7.68
2023-03-16T08:22:09.684Z,10.38
2023-03-16T08:24:42.616Z,7.32
2023-03-16T08:27:12.028Z,5.88
2023-03-16T08:29:41.870Z,6.03
2023-03-16T08:32:13.425Z,7.18
2023-03-16T08:34:43.750Z,9.18
2023-03-16T08:37:11.638Z,5.60
2023-03-16T08:39:42.017Z,9.18
2023-03-16T08:42:11.844Z,9.73
2023-03-16T08:44:44.096Z,5.72
2023-03-16T08:47:12.020Z,6.13
2023-03-16T08:49:41.401Z,6.43
2023-03-16T08:52:12.886Z,9.27
2023-03-16T08:54:47.122Z,5.65
2023-03-16T08:57:19.862Z,5.55
2023-03-16T08:59:46.810Z,5.93
2023-03-16T09:02:14.819Z,13.32
2023-03-16T09:04:41.819Z,6.22
2023-03-16T09:07:11.360Z,5.22
2023-03-16T09:09:39.425Z,8.90
2023-03-16T09:12:06.741Z,8.88
2023-03-16T09:14:34.174Z,4.93
2023-03-16T09:17:01.061Z,4.13
2023-03-16T09:19:32.525Z,5.15
2023-03-16T09:22:04.766Z,4.20
2023-03-16T09:24:31.937Z,6.55
2023-03-16T09:26:58.915Z,6.60
2023-03-16T09:29:25.941Z,5.40
2023-03-16T09:31:53.093Z,6.85
2023-03-16T09:34:19.981Z,8.00
2023-03-16T09:36:47.307Z,5.72
2023-03-16T09:39:14.420Z,5.07
2023-03-16T09:42:05.075Z,4.60
2023-03-16T09:44:43.520Z,8.60
2023-03-16T09:47:12.328Z,7.10
2023-03-16T09:49:50.107Z,4.93
2023-03-16T09:52:35.486Z,8.82
2023-03-16T09:55:38.782Z,6.32
2023-03-16T09:58:16.319Z,5.18
2023-03-16T10:01:01.856Z,5.97
2023-03-16T10:03:57.381Z,7.32
2023-03-16T10:06:26.377Z,8.95
2023-03-16T10:09:47.429Z,3.80
2023-03-16T10:12:16.009Z,7.30
2023-03-16T10:14:52.504Z,5.00
2023-03-16T10:17:28.248Z,7.10
2023-03-16T10:20:01.651Z,5.85
2023-03-16T10:22:37.610Z,5.05
2023-03-16T10:25:27.785Z,5.57
2023-03-16T10:27:54.741Z,6.00
2023-03-16T10:30:29.259Z,3.65
2023-03-16T10:33:01.659Z,7.10
2023-03-16T10:35:46.286Z,4.38
2023-03-16T10:38:40.186Z,4.10
2023-03-16T10:41:20.494Z,4.55
2023-03-16T10:43:55.427Z,4.50
2023-03-16T10:46:25.919Z,3.22
2023-03-16T10:49:00.476Z,3.60
2023-03-16T10:51:38.186Z,3.13
2023-03-16T10:54:16.545Z,3.88
2023-03-16T10:56:43.581Z,2.25
2023-03-16T10:59:22.877Z,2.45
2023-03-16T11:01:50.081Z,2.92
2023-03-16T11:04:20.374Z,4.85
2023-03-16T11:06:58.439Z,4.60
2023-03-16T11:09:33.332Z,3.08
2023-03-16T11:12:20.081Z,4.00
2023-03-16T11:17:35.080Z,3.65
2023-03-16T11:20:12.376Z,4.30
2023-03-16T11:22:41.021Z,3.63
2023-03-16T11:25:20.576Z,2.45
2023-03-16T11:28:12.006Z,4.50
2023-03-16T11:30:49.481Z,3.60
2023-03-16T11:33:16.397Z,3.15
2023-03-16T11:36:17.661Z,4.32
2023-03-16T11:39:05.663Z,6.03
2023-03-16T11:42:01.358Z,3.88
2023-03-16T11:45:10.895Z,3.45
2023-03-16T11:48:11.044Z,4.65
2023-03-16T11:50:37.818Z,3.40
2023-03-16T11:53:29.261Z,4.43
2023-03-16T11:56:27.248Z,4.80
2023-03-16T11:59:16.257Z,3.10
2023-03-16T12:02:10.957Z,4.22
2023-03-16T12:04:48.638Z,3.13
2023-03-16T12:07:42.910Z,2.33
2023-03-16T12:10:29.926Z,2.53
2023-03-16T12:13:30.582Z,3.85
2023-03-16T12:16:05.549Z,3.28
2023-03-16T12:18:45.480Z,3.47
2023-03-16T12:21:20.512Z,4.97
2023-03-16T12:23:58.543Z,5.45
2023-03-16T12:26:32.441Z,5.20
2023-03-16T12:29:04.685Z,5.47
2023-03-16T12:31:47.475Z,3.15
2023-03-16T12:34:53.204Z,3.72
2023-03-16T12:37:52.674Z,2.47
2023-03-16T12:40:44.651Z,3.17
2023-03-16T12:43:29.695Z,1.85
2023-03-16T12:46:16.480Z,2.28
2023-03-16T12:48:51.252Z,4.43
2023-03-16T12:51:18.216Z,1.67
2023-03-16T12:54:05.502Z,2.50
2023-03-16T12:56:44.715Z,2.45
2023-03-16T12:59:19.617Z,2.78
2023-03-16T13:01:52.045Z,8.68
2023-03-16T13:04:33.713Z,3.92
2023-03-16T13:07:16.066Z,1.40
2023-03-16T13:10:13.694Z,2.90
2023-03-16T13:12:45.175Z,3.60
2023-03-16T13:15:18.039Z,3.53
2023-03-16T13:17:48.123Z,2.63
2023-03-16T13:20:31.789Z,4.47
2023-03-16T13:23:20.768Z,4.38
2023-03-16T13:26:15.240Z,2.45
2023-03-16T13:28:46.119Z,3.33
2023-03-16T13:31:37.128Z,5.03
2023-03-16T13:34:08.356Z,3.55
2023-03-16T13:36:37.077Z,4.28
2023-03-16T13:39:22.395Z,2.80
2023-03-16T13:42:20.382Z,3.30
2023-03-16T13:44:47.980Z,5.00
2023-03-16T13:47:19.916Z,1.85
2023-03-16T13:49:51.008Z,2.63
2023-03-16T13:52:29.270Z,2.60
2023-03-16T13:54:59.502Z,2.20
2023-03-16T13:57:30.353Z,3.80
2023-03-16T14:00:23.198Z,3.15
2023-03-16T14:02:57.104Z,1.63
2023-03-16T14:05:33.316Z,3.22
2023-03-16T14:08:00.856Z,3.25
2023-03-16T14:10:37.739Z,1.55
2023-03-16T14:13:29.483Z,2.90
2023-03-16T14:16:13.819Z,5.72
2023-03-16T14:18:46.167Z,3.03
2023-03-16T14:21:21.612Z,1.50
2023-03-16T14:24:00.007Z,4.10
2023-03-16T14:26:27.562Z,2.63
2023-03-16T14:29:14.984Z,3.15
2023-03-16T14:31:41.924Z,2.33
2023-03-16T14:34:39.425Z,4.38
2023-03-16T14:37:13.148Z,2.88
2023-03-16T14:39:41.395Z,2.72
2023-03-16T14:42:22.152Z,2.35
2023-03-16T14:44:49.646Z,2.05
2023-03-16T14:47:28.211Z,3.33
2023-03-16T14:50:01.644Z,1.88
2023-03-16T14:52:31.754Z,1.20
2023-03-16T14:55:03.348Z,2.08
2023-03-16T14:57:31.250Z,1.20
2023-03-16T14:59:58.257Z,3.00
2023-03-16T15:02:32.240Z,4.93
2023-03-16T15:05:01.347Z,0.95
2023-03-16T15:07:36.614Z,2.40
2023-03-16T15:10:22.089Z,1.80
2023-03-16T15:12:54.653Z,1.38
2023-03-16T15:15:27.406Z,1.55
2023-03-16T15:17:54.999Z,1.42
2023-03-16T15:20:32.996Z,2.55
2023-03-16T15:23:01.620Z,2.83
2023-03-16T15:25:37.475Z,3.53
2023-03-16T15:28:26.905Z,2.47
2023-03-16T15:30:59.764Z,2.20
2023-03-16T15:33:27.513Z,1.63
2023-03-16T15:35:57.470Z,2.65
2023-03-16T15:38:28.469Z,3.95
2023-03-16T15:40:55.915Z,1.08
2023-03-16T15:43:27.419Z,0.85
2023-03-16T15:45:57.315Z,3.60
2023-03-16T15:48:25.317Z,0.98
2023-03-16T15:50:56.496Z,2.33
2023-03-16T15:53:35.700Z,2.83
2023-03-16T15:56:08.095Z,1.15
2023-03-16T15:58:36.696Z,1.13
2023-03-16T16:01:07.647Z,2.35
2023-03-16T16:03:35.039Z,3.55
2023-03-16T16:06:02.031Z,2.22
2023-03-16T16:08:28.903Z,1.08
2023-03-16T16:10:56.630Z,1.67
2023-03-16T16:13:42.930Z,2.03
2023-03-16T16:16:14.567Z,1.38
2023-03-16T16:18:41.972Z,1.83
2023-03-16T16:21:22.379Z,0.98
2023-03-16T16:23:52.162Z,3.30
2023-03-16T16:26:48.201Z,2.33
2023-03-16T16:29:22.220Z,3.10
2023-03-16T16:31:51.413Z,1.63
2023-03-16T16:34:23.925Z,2.38
2023-03-16T16:36:51.147Z,2.83
2023-03-16T16:39:18.067Z,1.95
2023-03-16T16:41:45.032Z,3.28
2023-03-16T16:44:23.981Z,1.50
2023-03-16T16:46:52.782Z,1.65
2023-03-16T16:49:31.157Z,2.83
2023-03-16T16:51:59.559Z,3.28
2023-03-16T16:54:30.300Z,2.15
2023-03-16T16:56:59.205Z,2.35
2023-03-16T16:59:33.188Z,2.75
2023-03-16T17:02:03.248Z,4.47
2023-03-16T17:04:30.704Z,3.10
2023-03-16T17:07:01.945Z,2.90
2023-03-16T17:09:30.669Z,3.00
2023-03-16T17:12:02.214Z,4.57
2023-03-16T17:14:30.983Z,2.97
2023-03-16T17:17:04.712Z,3.95
2023-03-16T17:19:32.680Z,4.15
2023-03-16T17:21:59.981Z,3.08
2023-03-16T17:24:27.484Z,5.40
2023-03-16T17:26:59.066Z,3.67
2023-03-16T17:29:31.563Z,2.75
2023-03-16T17:32:04.788Z,5.35
2023-03-16T17:34:34.406Z,3.72
2023-03-16T17:37:02.206Z,2.42
2023-03-16T17:39:33.712Z,3.22
2023-03-16T17:42:07.673Z,2.83
2023-03-16T17:44:39.929Z,2.33
2023-03-16T17:47:25.532Z,2.95
2023-03-16T17:49:53.484Z,2.97
2023-03-16T17:52:26.339Z,2.38
2023-03-16T17:54:54.765Z,2.92
2023-03-16T17:57:33.639Z,4.43
2023-03-16T18:00:07.355Z,4.22
2023-03-16T18:02:58.911Z,4.25
2023-03-16T18:05:33.794Z,3.25
2023-03-16T18:08:23.737Z,3.25
2023-03-16T18:11:00.446Z,4.55
2023-03-16T18:13:35.052Z,3.13
2023-03-16T18:16:05.667Z,3.47
2023-03-16T18:18:37.377Z,5.13
2023-03-16T18:21:04.718Z,4.05
2023-03-16T18:23:34.629Z,2.72
2023-03-16T18:26:04.013Z,3.70
2023-03-16T18:28:32.602Z,3.38
2023-03-16T18:31:01.600Z,5.03
2023-03-16T18:33:38.028Z,6.25
2023-03-16T18:36:16.181Z,3.97
2023-03-16T18:38:46.056Z,8.05
2023-03-16T18:41:22.666Z,6.15
2023-03-16T18:43:55.475Z,5.68
2023-03-16T18:46:34.257Z,4.20
2023-03-16T18:49:04.923Z,5.93
2023-03-16T18:51:31.960Z,6.55
2023-03-16T18:53:59.590Z,3.47
2023-03-16T18:56:28.600Z,2.80
2023-03-16T18:58:56.566Z,4.40
2023-03-16T19:01:32.845Z,3.47
2023-03-16T19:04:01.567Z,4.90
2023-03-16T19:06:35.441Z,3.05
2023-03-16T19:09:14.957Z,4.28
2023-03-16T19:11:44.324Z,5.20
2023-03-16T19:14:24.831Z,5.65
2023-03-16T19:16:52.737Z,3.35
2023-03-16T19:19:21.882Z,5.00
2023-03-16T19:22:13.760Z,2.22
2023-03-16T19:24:51.686Z,5.03
2023-03-16T19:27:36.931Z,5.38
2023-03-16T19:30:05.187Z,5.57
2023-03-16T19:32:32.263Z,6.43
2023-03-16T19:34:59.478Z,2.55
2023-03-16T19:37:29.925Z,4.15
2023-03-16T19:39:57.081Z,3.15
2023-03-16T19:42:36.228Z,3.10
2023-03-16T19:45:05.052Z,4.13
2023-03-16T19:47:34.851Z,3.45
2023-03-16T19:50:01.989Z,3.13
2023-03-16T19:52:31.410Z,5.05
2023-03-16T19:54:58.403Z,4.05
2023-03-16T19:57:25.437Z,3.85
2023-03-16T19:59:56.469Z,3.75
2023-03-16T20:02:28.049Z,6.30
2023-03-16T20:04:55.848Z,5.30
2023-03-16T20:07:22.970Z,4.05
2023-03-16T20:09:50.715Z,4.22
2023-03-16T20:12:27.574Z,4.75
2023-03-16T20:14:57.335Z,3.60
2023-03-16T20:17:28.245Z,7.93
2023-03-16T20:19:57.123Z,3.05
2023-03-16T20:22:28.300Z,9.68
2023-03-16T20:24:55.870Z,3.50
2023-03-16T20:27:24.193Z,4.20
2023-03-16T20:29:54.430Z,5.53
2023-03-16T20:32:25.784Z,3.90
2023-03-16T20:34:53.946Z,2.25
2023-03-16T20:37:27.006Z,3.25
2023-03-16T20:39:57.256Z,5.85
2023-03-16T20:42:30.069Z,3.75
2023-03-16T20:44:57.534Z,2.53
2023-03-16T20:47:26.620Z,4.18
2023-03-16T20:49:59.384Z,5.13
2023-03-16T20:52:30.870Z,4.22
2023-03-16T20:54:58.688Z,4.78
2023-03-16T20:57:29.018Z,4.55
2023-03-16T20:59:56.447Z,3.17
2023-03-16T21:02:37.295Z,3.88
2023-03-16T21:05:08.110Z,3.65
2023-03-16T21:07:37.423Z,3.75
2023-03-16T21:10:04.939Z,6.68
2023-03-16T21:12:34.745Z,6.57
2023-03-16T21:15:15.080Z,5.28
2023-03-16T21:17:41.998Z,5.90
2023-03-16T21:20:20.453Z,5.10
2023-03-16T21:22:47.633Z,6.22
2023-03-16T21:25:37.335Z,5.45
2023-03-16T21:28:05.390Z,6.75
2023-03-16T21:30:38.096Z,5.95
2023-03-16T21:33:35.012Z,5.90
2023-03-16T21:36:06.057Z,7.13
2023-03-16T21:38:33.342Z,4.15
2023-03-16T21:41:00.972Z,5.57
2023-03-16T21:43:28.195Z,4.32
2023-03-16T21:45:57.350Z,4.75
2023-03-16T21:48:32.393Z,5.55
2023-03-16T21:50:59.561Z,6.70
2023-03-16T21:53:31.622Z,4.55
2023-03-16T21:56:00.077Z,5.47
2023-03-16T21:58:27.315Z,8.20
2023-03-16T22:00:55.524Z,7.00
2023-03-16T22:03:47.684Z,4.80
2023-03-16T22:06:16.961Z,3.90
2023-03-16T22:08:43.963Z,5.78
2023-03-16T22:11:19.685Z,6.18
2023-03-16T22:13:47.035Z,4.33
2023-03-16T22:16:17.871Z,5.20
2023-03-16T22:18:48.694Z,4.38
2023-03-16T22:21:37.529Z,7.05
2023-03-16T22:24:12.241Z,5.00
2023-03-16T22:26:39.170Z,5.97
2023-03-16T22:29:23.501Z,6.68
2023-03-16T22:31:53.808Z,5.22
2023-03-16T22:34:30.234Z,4.43
2023-03-16T22:36:57.920Z,2.92
2023-03-16T22:39:25.039Z,5.40
2023-03-16T22:41:52.335Z,6.05
2023-03-16T22:44:23.095Z,5.40
2023-03-16T22:46:50.934Z,5.75
2023-03-16T22:49:27.211Z,5.40
2023-03-16T22:51:56.743Z,5.22
2023-03-16T22:54:27.308Z,5.55
2023-03-16T22:56:54.643Z,5.25
2023-03-16T22:59:24.705Z,7.28
2023-03-16T23:01:51.714Z,6.47
2023-03-16T23:04:25.797Z,4.90
2023-03-16T23:06:54.550Z,5.68
2023-03-16T23:09:22.274Z,6.85
2023-03-16T23:11:54.749Z,6.32
2023-03-16T23:14:25.692Z,4.03
2023-03-16T23:16:53.593Z,5.22
2023-03-16T23:19:34.208Z,6.45
2023-03-16T23:22:05.352Z,8.80
2023-03-16T23:24:34.075Z,6.20
2023-03-16T23:27:01.158Z,6.93
2023-03-16T23:29:28.784Z,8.80
2023-03-16T23:31:56.474Z,12.05
2023-03-16T23:34:25.171Z,5.68
2023-03-16T23:36:52.535Z,7.95
2023-03-16T23:39:19.839Z,7.88
2023-03-16T23:41:49.864Z,5.65
2023-03-16T23:44:24.008Z,7.47
2023-03-16T23:46:51.437Z,6.65
2023-03-16T23:49:22.976Z,5.32
2023-03-16T23:51:50.868Z,6.13
2023-03-16T23:54:23.137Z,6.30
2023-03-16T23:56:50.822Z,8.60
2023-03-16T23:59:19.188Z,8.68
